createdAt,value
2022-12-06T00:01:10.015Z,24.45
2022-12-06T00:03:38.070Z,23.52
2022-12-06T00:06:11.929Z,23.02
2022-12-06T00:11:15.505Z,21.63
2022-12-06T00:13:44.240Z,24.20
2022-12-06T00:16:16.692Z,22.38
2022-12-06T00:18:47.353Z,24.85
2022-12-06T00:21:21.945Z,22.73
2022-12-06T00:23:52.064Z,20.75
2022-12-06T00:26:20.682Z,23.77
2022-12-06T00:28:48.667Z,22.75
2022-12-06T00:31:18.127Z,24.48
2022-12-06T00:33:45.638Z,24.05
2022-12-06T00:36:15.440Z,25.05
2022-12-06T00:38:43.358Z,22.60
2022-12-06T00:41:19.436Z,22.25
2022-12-06T00:43:47.129Z,24.35
2022-12-06T00:46:19.523Z,26.38
2022-12-06T00:48:48.161Z,23.73
2022-12-06T00:51:17.633Z,23.65
2022-12-06T00:53:45.205Z,22.02
2022-12-06T00:56:12.946Z,22.30
2022-12-06T00:58:40.284Z,24.83
2022-12-06T01:01:11.414Z,23.73
2022-12-06T01:03:40.056Z,25.27
2022-12-06T01:06:09.781Z,24.98
2022-12-06T01:08:37.509Z,22.48
2022-12-06T01:11:05.422Z,27.63
2022-12-06T01:13:33.355Z,23.98
2022-12-06T01:16:08.717Z,23.73
2022-12-06T01:18:36.247Z,22.65
2022-12-06T01:21:08.244Z,25.48
2022-12-06T01:23:36.158Z,23.10
2022-12-06T01:26:05.217Z,22.73
2022-12-06T01:28:32.369Z,23.25
2022-12-06T01:31:00.094Z,21.30
2022-12-06T01:33:27.258Z,21.83
2022-12-06T01:35:54.359Z,24.40
2022-12-06T01:38:21.487Z,23.77
2022-12-06T01:40:48.976Z,24.83
2022-12-06T01:43:36.318Z,23.75
2022-12-06T01:46:17.887Z,24.17
2022-12-06T01:48:46.180Z,23.85
2022-12-06T01:51:15.517Z,23.70
2022-12-06T01:53:45.445Z,23.15
2022-12-06T01:56:12.911Z,23.83
2022-12-06T01:58:41.894Z,24.85
2022-12-06T02:01:09.756Z,24.48
2022-12-06T02:03:37.832Z,25.02
2022-12-06T02:06:07.395Z,25.17
2022-12-06T02:08:35.821Z,24.92
2022-12-06T02:11:04.582Z,24.85
2022-12-06T02:13:33.698Z,22.92
2022-12-06T02:16:21.857Z,22.25
2022-12-06T02:18:55.877Z,22.98
2022-12-06T02:21:48.714Z,24.52
2022-12-06T02:24:27.756Z,23.15
2022-12-06T02:27:17.530Z,25.55
2022-12-06T02:30:08.010Z,23.95
2022-12-06T02:32:39.162Z,25.13
2022-12-06T02:35:12.273Z,24.35
2022-12-06T02:37:53.274Z,26.02
2022-12-06T02:40:26.031Z,21.95
2022-12-06T02:43:15.813Z,27.83
2022-12-06T02:45:48.658Z,22.98
2022-12-06T02:48:17.947Z,28.70
2022-12-06T02:50:51.789Z,30.02
2022-12-06T02:55:49.999Z,26.70
2022-12-06T02:58:17.214Z,29.50
2022-12-06T03:00:47.145Z,31.60
2022-12-06T03:03:36.190Z,28.92
2022-12-06T03:06:03.300Z,29.13
2022-12-06T03:08:49.466Z,30.20
2022-12-06T03:11:17.924Z,28.55
2022-12-06T03:13:57.614Z,32.85
2022-12-06T03:16:54.140Z,32.65
2022-12-06T03:19:24.849Z,28.20
2022-12-06T03:22:03.584Z,27.70
2022-12-06T03:24:35.267Z,30.20
2022-12-06T03:27:07.752Z,28.88
2022-12-06T03:29:40.353Z,27.02
2022-12-06T03:32:09.304Z,27.50
2022-12-06T03:34:39.100Z,31.85
2022-12-06T03:37:09.780Z,34.00
2022-12-06T03:39:43.987Z,31.17
2022-12-06T03:42:11.532Z,26.95
2022-12-06T03:44:38.622Z,28.40
2022-12-06T03:47:16.015Z,27.67
2022-12-06T03:49:48.288Z,24.73
2022-12-06T03:52:15.381Z,27.02
2022-12-06T03:54:42.653Z,23.85
2022-12-06T03:57:10.065Z,25.23
2022-12-06T03:59:37.203Z,25.67
2022-12-06T04:02:04.398Z,25.65
2022-12-06T04:04:31.584Z,26.08
2022-12-06T04:06:58.790Z,23.70
2022-12-06T04:09:44.289Z,24.80
2022-12-06T04:12:30.135Z,22.48
2022-12-06T04:14:57.251Z,21.45
2022-12-06T04:17:42.965Z,19.90
2022-12-06T04:20:10.285Z,21.60
2022-12-06T04:22:56.096Z,20.92
2022-12-06T04:25:23.169Z,22.15
2022-12-06T04:28:08.509Z,21.50
2022-12-06T04:30:53.930Z,22.98
2022-12-06T04:33:39.398Z,23.25
2022-12-06T04:36:25.256Z,23.90
2022-12-06T04:38:52.361Z,23.58
2022-12-06T04:41:38.344Z,24.98
2022-12-06T04:44:05.953Z,24.55
2022-12-06T04:46:33.937Z,27.80
2022-12-06T04:49:01.293Z,29.63
2022-12-06T04:51:28.766Z,25.85
2022-12-06T04:53:56.326Z,25.70
2022-12-06T04:56:23.414Z,23.20
2022-12-06T04:58:50.706Z,20.75
2022-12-06T05:01:18.471Z,22.17
2022-12-06T05:03:45.673Z,22.10
2022-12-06T05:06:12.851Z,19.42
2022-12-06T05:08:39.977Z,21.63
2022-12-06T05:11:07.122Z,24.75
2022-12-06T05:13:34.285Z,24.88
2022-12-06T05:16:04.372Z,20.80
2022-12-06T05:18:32.027Z,21.77
2022-12-06T05:21:07.481Z,19.80
2022-12-06T05:23:35.529Z,20.90
2022-12-06T05:26:06.257Z,19.52
2022-12-06T05:28:34.260Z,23.75
2022-12-06T05:31:01.598Z,20.05
2022-12-06T05:33:29.225Z,21.13
2022-12-06T05:35:56.794Z,20.65
2022-12-06T05:38:24.384Z,18.50
2022-12-06T05:40:51.628Z,22.05
2022-12-06T05:43:18.751Z,21.25
2022-12-06T05:45:45.891Z,22.05
2022-12-06T05:48:13.024Z,23.10
2022-12-06T05:50:40.266Z,23.50
2022-12-06T05:53:07.374Z,21.90
2022-12-06T05:55:34.532Z,22.27
2022-12-06T05:58:01.606Z,21.23
2022-12-06T06:00:28.712Z,22.20
2022-12-06T06:02:55.943Z,20.38
2022-12-06T06:05:23.196Z,23.00
2022-12-06T06:07:50.428Z,26.30
2022-12-06T06:10:17.985Z,23.85
2022-12-06T06:12:45.265Z,23.08
2022-12-06T06:15:13.105Z,23.70
2022-12-06T06:17:41.207Z,24.35
2022-12-06T06:20:09.654Z,23.17
2022-12-06T06:22:38.572Z,23.83
2022-12-06T06:25:06.712Z,22.45
2022-12-06T06:27:37.602Z,20.27
2022-12-06T06:30:08.255Z,23.30
2022-12-06T06:32:35.936Z,19.65
2022-12-06T06:35:04.569Z,23.33
2022-12-06T06:37:32.956Z,22.50
2022-12-06T06:40:01.120Z,20.55
2022-12-06T06:42:35.162Z,23.05
2022-12-06T06:47:31.228Z,21.08
2022-12-06T06:49:58.590Z,20.63
2022-12-06T06:52:26.015Z,21.60
2022-12-06T06:54:53.124Z,26.38
2022-12-06T06:57:20.314Z,24.17
2022-12-06T06:59:47.574Z,21.35
2022-12-06T07:02:16.785Z,21.90
2022-12-06T07:04:44.721Z,21.38
2022-12-06T07:07:16.444Z,19.40
2022-12-06T07:09:46.460Z,18.25
2022-12-06T07:12:14.205Z,19.33
2022-12-06T07:14:41.425Z,20.88
2022-12-06T07:17:08.662Z,24.67
2022-12-06T07:19:35.818Z,21.08
2022-12-06T07:22:02.894Z,22.65
2022-12-06T07:24:29.982Z,23.35
2022-12-06T07:26:57.338Z,19.70
2022-12-06T07:29:24.460Z,21.83
2022-12-06T07:31:51.624Z,20.55
2022-12-06T07:34:18.826Z,23.73
2022-12-06T07:36:46.020Z,21.85
2022-12-06T07:39:15.036Z,22.13
2022-12-06T07:42:00.806Z,19.42
2022-12-06T07:47:39.420Z,20.23
2022-12-06T07:50:24.596Z,21.27
2022-12-06T07:52:51.707Z,23.13
2022-12-06T07:55:19.271Z,21.95
2022-12-06T07:57:46.380Z,21.63
2022-12-06T08:00:16.099Z,20.60
2022-12-06T08:02:43.356Z,22.38
2022-12-06T08:05:10.612Z,21.05
2022-12-06T08:07:38.362Z,22.42
2022-12-06T08:10:06.457Z,23.40
2022-12-06T08:12:33.599Z,23.27
2022-12-06T08:15:00.681Z,24.20
2022-12-06T08:17:29.647Z,22.67
2022-12-06T08:19:57.072Z,24.77
2022-12-06T08:22:24.255Z,23.00
2022-12-06T08:24:51.444Z,23.02
2022-12-06T08:27:18.954Z,22.95
2022-12-06T08:29:46.193Z,22.08
2022-12-06T08:32:13.294Z,22.75
2022-12-06T08:34:40.487Z,22.77
2022-12-06T08:37:07.553Z,23.90
2022-12-06T08:39:34.775Z,22.30
2022-12-06T08:42:06.278Z,23.10
2022-12-06T08:44:34.001Z,22.73
2022-12-06T08:47:02.145Z,21.58
2022-12-06T08:49:30.299Z,22.27
2022-12-06T08:51:59.548Z,24.05
2022-12-06T08:54:26.868Z,23.42
2022-12-06T08:56:54.419Z,22.90
2022-12-06T08:59:21.654Z,21.17
2022-12-06T09:01:49.010Z,20.17
2022-12-06T09:04:16.409Z,21.55
2022-12-06T09:06:45.180Z,22.00
2022-12-06T09:09:14.507Z,20.58
2022-12-06T09:11:41.993Z,18.98
2022-12-06T09:14:16.380Z,19.35
2022-12-06T09:16:46.821Z,18.65
2022-12-06T09:19:14.894Z,19.88
2022-12-06T09:21:43.597Z,18.33
2022-12-06T09:24:16.005Z,17.52
2022-12-06T09:26:43.695Z,18.40
2022-12-06T09:29:11.409Z,19.35
2022-12-06T09:31:40.252Z,18.13
2022-12-06T09:34:08.550Z,17.63
2022-12-06T09:36:40.537Z,16.67
2022-12-06T09:39:27.184Z,17.48
2022-12-06T09:41:54.308Z,17.45
2022-12-06T09:44:55.289Z,15.65
2022-12-06T09:47:31.176Z,16.35
2022-12-06T09:50:19.673Z,16.25
2022-12-06T09:53:17.520Z,15.88
2022-12-06T09:56:13.801Z,16.02
2022-12-06T09:59:03.531Z,16.17
2022-12-06T10:02:01.802Z,15.57
2022-12-06T10:05:04.216Z,13.55
2022-12-06T10:07:54.700Z,12.60
2022-12-06T10:10:25.788Z,12.77
2022-12-06T10:13:09.425Z,13.45
2022-12-06T10:15:52.640Z,11.85
2022-12-06T10:18:53.744Z,12.52
2022-12-06T10:21:30.870Z,10.75
2022-12-06T10:24:02.080Z,11.52
2022-12-06T10:26:44.802Z,11.73
2022-12-06T10:29:35.269Z,11.75
2022-12-06T10:32:19.419Z,10.85
2022-12-06T10:34:56.505Z,10.75
2022-12-06T10:37:35.458Z,10.95
2022-12-06T10:40:12.025Z,10.18
2022-12-06T10:42:45.058Z,10.93
2022-12-06T10:45:55.460Z,11.23
2022-12-06T10:48:54.372Z,10.68
2022-12-06T10:51:29.951Z,11.88
2022-12-06T10:54:10.917Z,10.15
2022-12-06T10:56:41.904Z,11.25
2022-12-06T10:59:26.081Z,12.50
2022-12-06T11:01:58.213Z,11.82
2022-12-06T11:04:32.030Z,11.38
2022-12-06T11:09:39.905Z,9.77
2022-12-06T11:12:19.139Z,11.23
2022-12-06T11:14:51.529Z,11.90
2022-12-06T11:17:24.606Z,11.35
2022-12-06T11:20:11.837Z,10.93
2022-12-06T11:22:59.542Z,10.05
2022-12-06T11:26:01.729Z,11.20
2022-12-06T11:28:55.578Z,10.52
2022-12-06T11:31:32.254Z,11.00
2022-12-06T11:33:59.991Z,9.55
2022-12-06T11:36:29.106Z,9.80
2022-12-06T11:38:56.337Z,10.35
2022-12-06T11:41:31.000Z,12.13
2022-12-06T11:43:58.704Z,10.15
2022-12-06T11:46:26.948Z,10.68
2022-12-06T11:48:56.475Z,10.73
2022-12-06T11:51:25.340Z,11.48
2022-12-06T11:54:17.449Z,10.93
2022-12-06T11:56:45.425Z,10.05
2022-12-06T11:59:29.071Z,10.70
2022-12-06T12:02:00.729Z,10.02
2022-12-06T12:04:42.594Z,9.30
2022-12-06T12:07:09.688Z,11.23
2022-12-06T12:09:57.037Z,12.38
2022-12-06T12:12:56.049Z,13.40
2022-12-06T12:15:23.684Z,11.60
2022-12-06T12:17:53.659Z,11.50
2022-12-06T12:20:26.463Z,12.52
2022-12-06T12:23:03.582Z,11.90
2022-12-06T12:25:33.670Z,11.85
2022-12-06T12:28:01.865Z,12.15
2022-12-06T12:30:40.103Z,13.98
2022-12-06T12:33:07.259Z,13.63
2022-12-06T12:35:57.397Z,12.88
2022-12-06T12:38:55.582Z,12.70
2022-12-06T12:41:29.201Z,13.07
2022-12-06T12:44:36.358Z,11.57
2022-12-06T12:47:06.259Z,12.63
2022-12-06T12:49:36.057Z,12.82
2022-12-06T12:52:24.734Z,13.75
2022-12-06T12:55:00.726Z,12.93
2022-12-06T12:57:28.478Z,14.00
2022-12-06T12:59:55.682Z,13.75
2022-12-06T13:02:30.343Z,14.48
2022-12-06T13:07:55.317Z,13.82
2022-12-06T13:10:34.981Z,14.85
2022-12-06T13:13:05.403Z,15.25
2022-12-06T13:15:40.173Z,15.05
2022-12-06T13:18:13.767Z,14.07
2022-12-06T13:20:41.149Z,13.82
2022-12-06T13:23:13.866Z,15.63
2022-12-06T13:25:46.759Z,14.65
2022-12-06T13:28:21.081Z,13.32
2022-12-06T13:30:54.203Z,14.00
2022-12-06T13:33:25.224Z,14.77
2022-12-06T13:36:10.804Z,14.77
2022-12-06T13:38:40.690Z,15.13
2022-12-06T13:41:36.622Z,14.75
2022-12-06T13:44:03.712Z,14.68
2022-12-06T13:46:31.516Z,14.25
2022-12-06T13:49:01.252Z,15.65
2022-12-06T13:51:31.486Z,14.73
2022-12-06T13:54:07.272Z,16.20
2022-12-06T13:56:34.319Z,15.77
2022-12-06T13:59:24.424Z,15.98
2022-12-06T14:01:52.582Z,16.20
2022-12-06T14:09:42.326Z,16.13
2022-12-06T14:12:24.670Z,16.30
2022-12-06T14:15:04.054Z,18.80
2022-12-06T14:20:31.685Z,17.65
2022-12-06T14:22:58.836Z,17.38
2022-12-06T14:25:28.648Z,17.33
2022-12-06T14:28:06.366Z,18.40
2022-12-06T14:30:34.274Z,16.45
2022-12-06T14:33:01.760Z,20.83
2022-12-06T14:35:35.775Z,27.10
2022-12-06T14:38:20.707Z,22.40
2022-12-06T14:41:06.362Z,18.77
2022-12-06T14:43:34.763Z,18.60
2022-12-06T14:46:05.010Z,18.20
2022-12-06T14:48:52.561Z,17.92
2022-12-06T14:51:50.497Z,19.00
2022-12-06T14:54:18.395Z,18.67
2022-12-06T14:56:45.652Z,17.52
2022-12-06T14:59:12.933Z,17.55
2022-12-06T15:01:54.193Z,18.92
2022-12-06T15:04:33.527Z,19.13
2022-12-06T15:07:01.193Z,19.35
2022-12-06T15:09:30.605Z,18.55
2022-12-06T15:12:39.025Z,20.23
2022-12-06T15:15:06.434Z,18.25
2022-12-06T15:17:33.810Z,20.90
2022-12-06T15:20:14.304Z,20.67
2022-12-06T15:22:46.202Z,19.83
2022-12-06T15:25:14.670Z,21.38
2022-12-06T15:27:41.724Z,21.33
2022-12-06T15:30:09.367Z,20.52
2022-12-06T15:32:36.460Z,22.42
2022-12-06T15:35:03.993Z,20.50
2022-12-06T15:37:38.836Z,28.08
2022-12-06T15:40:07.823Z,25.20
2022-12-06T15:42:35.905Z,23.30
2022-12-06T15:45:03.729Z,22.02
2022-12-06T15:47:31.068Z,21.70
2022-12-06T15:49:58.496Z,22.70
2022-12-06T15:52:26.720Z,21.90
2022-12-06T15:54:53.839Z,20.85
2022-12-06T15:57:20.942Z,20.48
2022-12-06T15:59:48.033Z,21.58
2022-12-06T16:02:17.622Z,21.77
2022-12-06T16:04:47.957Z,21.90
2022-12-06T16:07:18.525Z,22.20
2022-12-06T16:09:46.834Z,22.67
2022-12-06T16:12:13.946Z,22.80
2022-12-06T16:14:41.080Z,24.70
2022-12-06T16:17:08.216Z,23.63
2022-12-06T16:19:53.613Z,24.45
2022-12-06T16:22:40.672Z,24.95
2022-12-06T16:25:08.201Z,23.30
2022-12-06T16:27:35.283Z,24.65
2022-12-06T16:30:04.738Z,29.48
2022-12-06T16:32:33.096Z,28.40
2022-12-06T16:35:00.445Z,28.17
2022-12-06T16:37:27.933Z,28.83
2022-12-06T16:39:55.018Z,25.50
2022-12-06T16:42:22.196Z,23.38
2022-12-06T16:44:52.054Z,25.48
2022-12-06T16:49:47.799Z,25.25
2022-12-06T16:52:21.586Z,26.08
2022-12-06T16:54:48.703Z,22.80
2022-12-06T16:57:15.830Z,26.20
2022-12-06T16:59:43.387Z,26.45
2022-12-06T17:02:27.024Z,24.42
2022-12-06T17:04:55.241Z,24.27
2022-12-06T17:07:22.648Z,24.02
2022-12-06T17:09:49.739Z,25.73
2022-12-06T17:12:16.865Z,27.77
2022-12-06T17:14:44.126Z,29.45
2022-12-06T17:17:16.398Z,29.80
2022-12-06T17:19:44.559Z,27.63
2022-12-06T17:22:12.756Z,24.42
2022-12-06T17:24:39.866Z,25.33
2022-12-06T17:27:09.014Z,23.45
2022-12-06T17:29:36.341Z,27.63
2022-12-06T17:32:03.544Z,26.17
2022-12-06T17:34:30.733Z,25.17
2022-12-06T17:36:58.919Z,24.25
2022-12-06T17:39:26.256Z,29.63
2022-12-06T17:42:11.962Z,26.17
2022-12-06T17:44:39.942Z,26.48
2022-12-06T17:47:07.157Z,27.15
2022-12-06T17:49:36.037Z,27.85
2022-12-06T17:52:03.340Z,26.63
2022-12-06T17:54:30.495Z,26.95
2022-12-06T17:56:57.618Z,25.48
2022-12-06T17:59:30.269Z,27.63
2022-12-06T18:02:18.154Z,27.00
2022-12-06T18:04:47.574Z,27.33
2022-12-06T18:07:16.459Z,26.30
2022-12-06T18:09:44.213Z,27.35
2022-12-06T18:12:12.868Z,27.50
2022-12-06T18:14:39.988Z,28.15
2022-12-06T18:17:07.635Z,25.42
2022-12-06T18:19:35.210Z,24.15
2022-12-06T18:22:02.388Z,25.88
2022-12-06T18:24:35.217Z,24.33
2022-12-06T18:27:04.907Z,26.15
2022-12-06T18:29:32.228Z,25.90
2022-12-06T18:31:59.390Z,27.75
2022-12-06T18:34:26.583Z,27.92
2022-12-06T18:36:53.657Z,26.45
2022-12-06T18:39:24.489Z,25.10
2022-12-06T18:41:53.963Z,26.77
2022-12-06T18:44:21.446Z,26.35
2022-12-06T18:46:48.595Z,25.67
2022-12-06T18:49:15.678Z,24.60
2022-12-06T18:51:42.876Z,27.50
2022-12-06T18:54:13.465Z,30.42
2022-12-06T18:56:40.981Z,31.90
2022-12-06T18:59:09.625Z,33.75
2022-12-06T19:01:41.175Z,29.85
2022-12-06T19:04:14.094Z,29.75
2022-12-06T19:06:43.189Z,26.77
2022-12-06T19:09:13.351Z,26.73
2022-12-06T19:11:42.949Z,30.23
2022-12-06T19:14:10.537Z,29.67
2022-12-06T19:16:48.903Z,28.90
2022-12-06T19:19:24.674Z,27.75
2022-12-06T19:21:53.703Z,28.88
2022-12-06T19:24:23.799Z,29.05
2022-12-06T19:26:52.596Z,28.10
2022-12-06T19:29:19.948Z,29.65
2022-12-06T19:31:47.575Z,30.27
2022-12-06T19:34:17.600Z,29.60
2022-12-06T19:36:45.304Z,29.35
2022-12-06T19:39:13.917Z,32.13
2022-12-06T19:42:00.483Z,30.45
2022-12-06T19:44:28.757Z,28.50
2022-12-06T19:46:56.149Z,35.25
2022-12-06T19:49:25.371Z,30.15
2022-12-06T19:51:52.872Z,30.45
2022-12-06T19:54:23.493Z,30.55
2022-12-06T19:56:53.169Z,31.05
2022-12-06T19:59:21.433Z,48.10
2022-12-06T20:01:50.140Z,60.30
2022-12-06T20:04:20.368Z,39.38
2022-12-06T20:06:47.758Z,30.85
2022-12-06T20:09:16.449Z,32.83
2022-12-06T20:12:01.989Z,30.73
2022-12-06T20:14:44.844Z,31.45
2022-12-06T20:17:14.978Z,31.13
2022-12-06T20:19:46.388Z,30.60
2022-12-06T20:22:15.063Z,32.63
2022-12-06T20:24:42.563Z,32.53
2022-12-06T20:27:10.541Z,33.35
2022-12-06T20:29:37.838Z,31.33
2022-12-06T20:32:05.560Z,32.22
2022-12-06T20:34:34.771Z,33.92
2022-12-06T20:37:04.410Z,31.25
2022-12-06T20:39:35.761Z,30.67
2022-12-06T20:42:05.637Z,32.55
2022-12-06T20:44:34.555Z,31.70
2022-12-06T20:47:01.830Z,33.88
2022-12-06T20:49:29.023Z,33.13
2022-12-06T20:51:57.932Z,31.23
2022-12-06T20:54:25.076Z,29.98
2022-12-06T20:56:53.372Z,32.55
2022-12-06T20:59:21.225Z,35.72
2022-12-06T21:01:48.575Z,33.90
2022-12-06T21:04:16.563Z,33.17
2022-12-06T21:06:43.827Z,36.38
2022-12-06T21:09:11.265Z,39.05
2022-12-06T21:11:38.893Z,36.30
2022-12-06T21:14:06.191Z,36.08
2022-12-06T21:16:34.993Z,35.65
2022-12-06T21:19:04.715Z,35.78
2022-12-06T21:21:35.123Z,42.33
2022-12-06T21:24:04.925Z,36.47
2022-12-06T21:26:32.395Z,37.70
2022-12-06T21:28:59.583Z,31.60
2022-12-06T21:31:29.269Z,32.47
2022-12-06T21:33:57.235Z,31.77
2022-12-06T21:36:24.726Z,31.95
2022-12-06T21:38:52.189Z,38.42
2022-12-06T21:41:19.493Z,35.50
2022-12-06T21:43:47.253Z,35.95
2022-12-06T21:46:17.355Z,33.55
2022-12-06T21:48:48.861Z,34.03
2022-12-06T21:51:16.729Z,33.70
2022-12-06T21:53:44.369Z,31.73
2022-12-06T21:56:20.070Z,30.95
2022-12-06T21:58:48.250Z,34.05
2022-12-06T22:01:19.290Z,32.10
2022-12-06T22:03:51.116Z,33.75
2022-12-06T22:06:18.856Z,31.48
2022-12-06T22:08:47.382Z,33.50
2022-12-06T22:11:19.327Z,32.88
2022-12-06T22:13:48.105Z,35.15
2022-12-06T22:16:15.922Z,37.40
2022-12-06T22:18:45.794Z,30.35
2022-12-06T22:21:19.661Z,28.27
2022-12-06T22:23:47.739Z,29.42
2022-12-06T22:26:18.118Z,28.73
2022-12-06T22:28:45.747Z,28.55
2022-12-06T22:31:24.962Z,30.90
2022-12-06T22:33:53.064Z,27.17
2022-12-06T22:36:21.369Z,28.63
2022-12-06T22:38:50.434Z,27.05
2022-12-06T22:41:18.849Z,28.85
2022-12-06T22:43:49.456Z,29.67
2022-12-06T22:46:16.768Z,31.13
2022-12-06T22:48:44.017Z,29.02
2022-12-06T22:51:13.957Z,28.83
2022-12-06T22:53:43.394Z,29.00
2022-12-06T22:56:11.096Z,28.90
2022-12-06T22:58:38.895Z,26.50
2022-12-06T23:01:16.516Z,29.50
2022-12-06T23:03:46.076Z,29.15
2022-12-06T23:06:14.669Z,28.42
2022-12-06T23:08:42.276Z,28.13
2022-12-06T23:11:13.970Z,28.38
2022-12-06T23:13:41.479Z,29.20
2022-12-06T23:16:13.040Z,27.95
2022-12-06T23:18:41.210Z,28.10
2022-12-06T23:21:19.032Z,27.70
2022-12-06T23:23:48.780Z,27.60
2022-12-06T23:26:20.516Z,27.13
2022-12-06T23:28:47.972Z,25.60
2022-12-06T23:31:18.255Z,27.55
2022-12-06T23:33:46.204Z,24.83
2022-12-06T23:36:20.546Z,27.27
2022-12-06T23:38:47.990Z,24.70
2022-12-06T23:41:18.651Z,25.95
2022-12-06T23:43:46.091Z,25.80
2022-12-06T23:46:21.796Z,26.58
2022-12-06T23:48:50.812Z,24.63
2022-12-06T23:51:20.494Z,23.27
2022-12-06T23:53:53.226Z,24.90
2022-12-06T23:56:21.743Z,23.42
2022-12-06T23:58:50.694Z,24.35
